Terminal Aerodrome Forecast
Issued by NWS Cleveland, OH

Home | Current Version | Previous Version | Text Only | Print | Product List | Glossary On
Versions: 1 2 3 4 5 6 7 8 9 10 11 12 13 14 15 16 17 18 19 20
000
FTUS41 KCLE 241700
TAFERI
TAF
KERI 241720Z 2418/2518 32008KT P6SM SCT250
     FM242100 36006KT P6SM SCT250
     FM250000 06006KT P6SM BKN200
     FM250600 12010KT P6SM SCT100 BKN150
     FM251200 14014G20KT P6SM SCT045 OVC100
     FM251600 16016G24KT P6SM VCSH OVC045=

USA.gov is the U.S. government's official web portal to all federal, state and local government web resources and services.